Time;durP1;ratioP1;P1;durP2;ratioP2;P2;SDS_P1;SDS_P2;PMS_P1;PMS_P2;Temp;Humidity;BMP_temperature;BMP_pressure;BME280_temperature;BME280_humidity;BME280_pressure;Samples;Min_cycle;Max_cycle;Signal;HPM_P1;HPM_P2
2023/09/14 00:02:15;;;;;;;9.95;3.85;;;;;;;-140.66;100.00;55571.53;5118087;28;20031;-70
2023/09/14 00:05:01;;;;;;;9.75;3.67;;;;;;;-140.66;100.00;55571.53;5117726;28;20027;-70
2023/09/14 00:07:47;;;;;;;8.32;4.00;;;;;;;-140.66;100.00;55571.53;5117232;28;20031;-72
2023/09/14 00:10:33;;;;;;;7.97;3.55;;;;;;;-140.66;100.00;55571.53;5119387;28;20054;-73
2023/09/14 00:13:19;;;;;;;6.93;3.58;;;;;;;-140.66;100.00;55571.53;5116905;28;20027;-70
2023/09/14 00:16:04;;;;;;;7.13;3.85;;;;;;;-140.66;100.00;55571.53;5119301;28;20031;-70
2023/09/14 00:18:50;;;;;;;11.32;4.28;;;;;;;-140.66;100.00;55571.53;5117439;28;20027;-71
2023/09/14 00:21:36;;;;;;;7.43;3.72;;;;;;;-140.66;100.00;55571.53;5117254;28;20137;-71
2023/09/14 00:24:22;;;;;;;10.60;4.00;;;;;;;-140.66;100.00;55571.53;5117717;28;20110;-70
2023/09/14 00:27:08;;;;;;;8.68;3.97;;;;;;;-140.66;100.00;55571.53;5117591;28;20082;-70
2023/09/14 00:29:53;;;;;;;9.05;4.00;;;;;;;-140.66;100.00;55571.53;5117322;28;20058;-70
2023/09/14 00:32:40;;;;;;;11.10;4.22;;;;;;;-140.66;100.00;55571.53;5101884;28;20110;-71
2023/09/14 00:35:25;;;;;;;10.13;4.43;;;;;;;-140.66;100.00;55571.53;5107453;28;20072;-71
2023/09/14 00:38:11;;;;;;;11.15;3.83;;;;;;;-140.66;100.00;55571.53;5115767;28;20020;-72
2023/09/14 00:40:57;;;;;;;12.68;4.78;;;;;;;-140.66;100.00;55571.53;5116331;28;20031;-71
2023/09/14 00:43:43;;;;;;;10.15;4.05;;;;;;;-140.66;100.00;55571.53;5116184;28;20051;-70
2023/09/14 00:46:29;;;;;;;9.77;3.60;;;;;;;-140.66;100.00;55571.53;5116167;28;20032;-71
2023/09/14 00:49:15;;;;;;;8.27;3.90;;;;;;;-140.66;100.00;55571.53;5116533;28;20106;-70
2023/09/14 00:52:02;;;;;;;8.60;4.00;;;;;;;-140.66;100.00;55571.53;5116110;28;20035;-70
2023/09/14 00:54:48;;;;;;;10.43;4.05;;;;;;;-140.66;100.00;55571.53;5101739;28;20038;-70
2023/09/14 00:57:35;;;;;;;10.05;4.03;;;;;;;-140.66;100.00;55571.53;5115433;28;20023;-71
2023/09/14 01:00:21;;;;;;;11.50;3.85;;;;;;;-140.66;100.00;55571.53;5117018;28;20102;-71
2023/09/14 01:03:07;;;;;;;9.45;4.00;;;;;;;-140.66;100.00;55571.53;5116949;28;20036;-71
2023/09/14 01:05:53;;;;;;;11.20;3.65;;;;;;;-140.66;100.00;55571.53;5102251;28;20028;-70
2023/09/14 01:08:38;;;;;;;9.23;3.90;;;;;;;-140.66;100.00;55571.53;5116131;28;20068;-71
2023/09/14 01:11:24;;;;;;;8.35;3.90;;;;;;;-140.66;100.00;55571.53;5116879;28;20081;-70
2023/09/14 01:14:17;;;;;;;9.18;3.90;;;;;;;-140.66;100.00;55571.53;5116360;28;20035;-71
2023/09/14 01:17:14;;;;;;;10.25;3.90;;;;;;;-140.66;100.00;55571.53;5116053;28;20038;-70
2023/09/14 01:20:19;;;;;;;5.78;3.78;;;;;;;-140.66;100.00;55571.53;5116677;28;20055;-70
2023/09/14 01:23:17;;;;;;;9.55;4.00;;;;;;;-140.66;100.00;55571.53;5115314;28;20430;-71
2023/09/14 01:26:04;;;;;;;7.97;4.00;;;;;;;-140.66;100.00;55571.53;5102427;28;20023;-70
2023/09/14 01:28:50;;;;;;;7.60;3.50;;;;;;;-140.66;100.00;55571.53;5116276;28;20070;-71
2023/09/14 01:31:35;;;;;;;8.23;3.78;;;;;;;-140.66;100.00;55571.53;5116877;28;20020;-69
2023/09/14 01:34:21;;;;;;;10.27;4.15;;;;;;;-140.66;100.00;55571.53;5116618;28;20100;-70
2023/09/14 01:37:07;;;;;;;6.40;3.78;;;;;;;-140.66;100.00;55571.53;5117145;28;20442;-70
2023/09/14 01:39:54;;;;;;;7.10;4.03;;;;;;;-140.66;100.00;55571.53;5100257;28;20445;-70
2023/09/14 01:42:41;;;;;;;6.13;3.80;;;;;;;-140.66;100.00;55571.53;5115656;28;20471;-70
2023/09/14 01:45:27;;;;;;;11.05;4.20;;;;;;;-140.66;100.00;55571.53;5115509;28;20035;-70
2023/09/14 01:48:19;;;;;;;9.05;4.25;;;;;;;-140.66;100.00;55571.53;5115425;28;20062;-70
2023/09/14 01:51:05;;;;;;;7.97;3.88;;;;;;;-140.66;100.00;55571.53;5115932;28;20035;-71
2023/09/14 01:53:51;;;;;;;7.63;3.78;;;;;;;-140.66;100.00;55571.53;5115767;28;20020;-71
2023/09/14 01:56:37;;;;;;;10.98;4.25;;;;;;;-140.66;100.00;55571.53;5114271;28;20365;-70
2023/09/14 01:59:22;;;;;;;10.18;3.60;;;;;;;-140.66;100.00;55571.53;5115177;28;20034;-71
2023/09/14 02:02:08;;;;;;;10.27;4.30;;;;;;;-140.66;100.00;55571.53;5115696;28;20019;-70
2023/09/14 02:04:54;;;;;;;9.65;3.85;;;;;;;-140.66;100.00;55571.53;5100791;28;20045;-71
2023/09/14 02:07:40;;;;;;;6.90;3.95;;;;;;;-140.66;100.00;55571.53;5115185;28;20034;-70
2023/09/14 02:10:26;;;;;;;9.95;3.92;;;;;;;-140.66;100.00;55571.53;5115704;28;20023;-70
2023/09/14 02:13:11;;;;;;;6.57;4.03;;;;;;;-140.66;100.00;55571.53;5116042;28;20106;-70
2023/09/14 02:15:57;;;;;;;10.40;3.90;;;;;;;-140.66;100.00;55571.53;5101454;28;20035;-70
2023/09/14 02:18:44;;;;;;;6.45;3.72;;;;;;;-140.66;100.00;55571.53;5099552;28;20088;-69
2023/09/14 02:21:29;;;;;;;7.38;4.10;;;;;;;-140.66;100.00;55571.53;5099667;28;20019;-70
2023/09/14 02:24:15;;;;;;;9.02;4.45;;;;;;;-140.66;100.00;55571.53;5100604;28;20115;-70
2023/09/14 02:27:01;;;;;;;9.20;4.28;;;;;;;-140.66;100.00;55571.53;5115580;28;20024;-70
2023/09/14 02:29:47;;;;;;;7.47;4.05;;;;;;;-140.66;100.00;55571.53;5114631;28;20024;-69
2023/09/14 02:32:33;;;;;;;8.93;4.97;;;;;;;-140.66;100.00;55571.53;5115326;28;20030;-70
2023/09/14 02:35:18;;;;;;;12.00;4.72;;;;;;;-140.66;100.00;55571.53;5113323;28;20028;-70
2023/09/14 02:38:04;;;;;;;9.40;4.00;;;;;;;-140.66;100.00;55571.53;5114048;28;20023;-70
2023/09/14 02:40:50;;;;;;;9.02;3.90;;;;;;;-140.66;100.00;55571.53;5115626;28;20033;-71
2023/09/14 02:43:36;;;;;;;9.25;3.95;;;;;;;-140.66;100.00;55571.53;5115038;28;20052;-71
2023/09/14 02:46:22;;;;;;;8.13;3.95;;;;;;;-140.66;100.00;55571.53;5114675;28;20020;-71
2023/09/14 02:49:08;;;;;;;11.15;4.15;;;;;;;-140.66;100.00;55571.53;5115080;28;20039;-70
2023/09/14 02:51:53;;;;;;;14.07;3.90;;;;;;;-140.66;100.00;55571.53;5115243;28;20046;-70
2023/09/14 02:54:39;;;;;;;8.82;4.18;;;;;;;-140.66;100.00;55571.53;5115165;28;20082;-70
2023/09/14 02:57:25;;;;;;;6.35;4.03;;;;;;;-140.66;100.00;55571.53;5100633;28;20047;-70
2023/09/14 03:00:12;;;;;;;10.10;3.38;;;;;;;-140.66;100.00;55571.53;5113363;28;20026;-70
2023/09/14 03:02:58;;;;;;;12.80;4.70;;;;;;;-140.66;100.00;55571.53;5114933;28;20028;-70
2023/09/14 03:05:43;;;;;;;6.13;3.90;;;;;;;-140.66;100.00;55571.53;5099212;28;20106;-71
2023/09/14 03:08:30;;;;;;;9.68;4.05;;;;;;;-140.66;100.00;55571.53;5099115;28;20412;-70
2023/09/14 03:11:16;;;;;;;8.50;4.32;;;;;;;-140.66;100.00;55571.53;5099723;28;20023;-70
2023/09/14 03:14:01;;;;;;;9.18;4.00;;;;;;;-140.66;100.00;55571.53;5114003;28;20111;-70
2023/09/14 03:16:49;;;;;;;9.35;4.25;;;;;;;-140.66;100.00;55571.53;5115285;28;20027;-70
2023/09/14 03:19:35;;;;;;;13.45;4.20;;;;;;;-140.66;100.00;55571.53;5112965;28;20020;-70
2023/09/14 03:22:20;;;;;;;12.20;4.00;;;;;;;-140.66;100.00;55571.53;5114613;28;20114;-70
2023/09/14 03:25:06;;;;;;;9.75;3.92;;;;;;;-140.66;100.00;55571.53;5113127;28;20020;-70
2023/09/14 03:27:52;;;;;;;8.45;3.92;;;;;;;-140.66;100.00;55571.53;5099296;28;20035;-70
2023/09/14 03:30:38;;;;;;;9.18;4.40;;;;;;;-140.66;100.00;55571.53;5114631;28;20039;-70
2023/09/14 03:33:24;;;;;;;7.13;4.40;;;;;;;-140.66;100.00;55571.53;5097818;28;20415;-70
2023/09/14 03:36:10;;;;;;;10.77;4.43;;;;;;;-140.66;100.00;55571.53;5113381;28;20047;-70
2023/09/14 03:38:56;;;;;;;7.45;4.63;;;;;;;-140.66;100.00;55571.53;5113818;28;20023;-70
2023/09/14 03:41:42;;;;;;;10.52;4.60;;;;;;;-140.66;100.00;55571.53;5100595;28;20015;-70
2023/09/14 03:44:27;;;;;;;13.95;4.93;;;;;;;-140.66;100.00;55571.53;5114230;28;20108;-70
2023/09/14 03:47:13;;;;;;;13.48;4.90;;;;;;;-140.66;100.00;55571.53;5114650;28;20051;-71
2023/09/14 03:49:59;;;;;;;12.82;5.30;;;;;;;-140.66;100.00;55571.53;5114517;28;20128;-70
2023/09/14 03:52:45;;;;;;;14.85;5.68;;;;;;;-140.66;100.00;55571.53;5112999;28;20034;-71
2023/09/14 03:55:31;;;;;;;10.32;5.38;;;;;;;-140.66;100.00;55571.53;5114170;28;20106;-70
2023/09/14 03:58:16;;;;;;;9.75;4.82;;;;;;;-140.66;100.00;55571.53;5112474;28;20066;-72
2023/09/14 04:01:03;;;;;;;12.95;5.40;;;;;;;-140.66;100.00;55571.53;5099058;28;20037;-71
2023/09/14 04:03:49;;;;;;;8.25;4.90;;;;;;;-140.66;100.00;55571.53;5113840;28;20046;-70
2023/09/14 04:06:35;;;;;;;9.25;4.80;;;;;;;-140.66;100.00;55571.53;5113841;28;20111;-70
2023/09/14 04:09:21;;;;;;;11.55;5.30;;;;;;;-140.66;100.00;55571.53;5114617;28;20360;-71
2023/09/14 04:12:06;;;;;;;18.25;5.55;;;;;;;-140.66;100.00;55571.53;5113734;28;20027;-71
2023/09/14 04:14:52;;;;;;;9.30;5.10;;;;;;;-140.66;100.00;55571.53;5114088;28;20114;-71
2023/09/14 04:17:38;;;;;;;13.70;4.82;;;;;;;-140.66;100.00;55571.53;5114617;28;20028;-70
2023/09/14 04:20:24;;;;;;;11.85;4.95;;;;;;;-140.66;100.00;55571.53;5112765;28;20181;-70
2023/09/14 04:23:09;;;;;;;11.73;5.68;;;;;;;-140.66;100.00;55571.53;5113776;28;20028;-71
2023/09/14 04:25:55;;;;;;;11.40;5.35;;;;;;;-140.66;100.00;55571.53;5113788;28;20398;-69
2023/09/14 04:28:41;;;;;;;10.02;5.38;;;;;;;-140.66;100.00;55571.53;5103370;28;20342;-69
2023/09/14 04:31:27;;;;;;;10.35;5.07;;;;;;;-140.66;100.00;55571.53;5118348;28;20035;-71
2023/09/14 04:34:12;;;;;;;10.30;5.07;;;;;;;-140.66;100.00;55571.53;5117200;28;20039;-70
2023/09/14 04:36:58;;;;;;;18.10;5.68;;;;;;;-140.66;100.00;55571.53;5118161;28;20019;-69
2023/09/14 04:39:45;;;;;;;9.43;5.18;;;;;;;-140.66;100.00;55571.53;5116742;28;20096;-70
2023/09/14 04:42:31;;;;;;;9.88;5.18;;;;;;;-140.66;100.00;55571.53;5117309;28;20110;-71
2023/09/14 04:45:17;;;;;;;14.07;5.30;;;;;;;-140.66;100.00;55571.53;5117181;28;20053;-71
2023/09/14 04:48:03;;;;;;;15.93;5.20;;;;;;;-140.66;100.00;55571.53;5101083;28;20038;-70
2023/09/14 04:50:49;;;;;;;17.08;7.10;;;;;;;-140.66;100.00;55571.53;5116837;28;20030;-71
2023/09/14 04:53:34;;;;;;;15.18;5.97;;;;;;;-140.66;100.00;55571.53;5116528;28;20027;-71
2023/09/14 04:56:20;;;;;;;10.75;5.10;;;;;;;-140.66;100.00;55571.53;5116198;28;20412;-70
2023/09/14 04:59:06;;;;;;;18.58;5.85;;;;;;;-140.66;100.00;55571.53;5116866;28;20030;-70
2023/09/14 05:01:51;;;;;;;14.45;5.80;;;;;;;-140.66;100.00;55571.53;5101264;28;20015;-70
2023/09/14 05:04:37;;;;;;;16.80;6.40;;;;;;;-140.66;100.00;55571.53;5117034;28;20046;-71
2023/09/14 05:07:23;;;;;;;11.80;5.68;;;;;;;-140.66;100.00;55571.53;5118321;28;20019;-71
2023/09/14 05:10:10;;;;;;;17.33;6.00;;;;;;;-140.66;100.00;55571.53;5116951;28;20140;-71
2023/09/14 05:12:55;;;;;;;13.45;6.45;;;;;;;-140.66;100.00;55571.53;5115399;28;20028;-70
2023/09/14 05:15:41;;;;;;;14.77;6.18;;;;;;;-140.66;100.00;55571.53;5114756;28;20027;-70
2023/09/14 05:18:27;;;;;;;11.95;6.28;;;;;;;-140.66;100.00;55571.53;5116762;28;20471;-71
2023/09/14 05:21:13;;;;;;;19.48;6.03;;;;;;;-140.66;100.00;55571.53;5117047;28;20026;-71
2023/09/14 05:23:58;;;;;;;16.02;6.30;;;;;;;-140.66;100.00;55571.53;5114595;28;20019;-71
2023/09/14 05:26:44;;;;;;;15.63;5.75;;;;;;;-140.66;100.00;55571.53;5116033;28;20028;-71
2023/09/14 05:29:30;;;;;;;11.95;5.60;;;;;;;-140.66;100.00;55571.53;5116950;28;20027;-71
2023/09/14 05:32:16;;;;;;;12.75;5.50;;;;;;;-140.66;100.00;55571.53;5117120;28;20031;-71
2023/09/14 05:35:04;;;;;;;10.75;5.68;;;;;;;-140.66;100.00;55571.53;5115443;28;20098;-70
2023/09/14 05:37:51;;;;;;;23.60;6.22;;;;;;;-140.66;100.00;55571.53;5115265;28;20047;-70
2023/09/14 05:40:36;;;;;;;13.00;5.10;;;;;;;-140.66;100.00;55571.53;5102278;28;20339;-70
2023/09/14 05:43:22;;;;;;;19.85;5.88;;;;;;;-140.66;100.00;55571.53;5115721;28;20473;-70
2023/09/14 05:46:08;;;;;;;19.70;6.18;;;;;;;-140.66;100.00;55571.53;5115738;28;20028;-73
2023/09/14 05:48:53;;;;;;;18.92;6.13;;;;;;;-140.66;100.00;55571.53;5115460;28;20031;-70
2023/09/14 05:51:39;;;;;;;11.15;5.15;;;;;;;-140.66;100.00;55571.53;5117261;28;20416;-71
2023/09/14 05:54:25;;;;;;;10.77;4.93;;;;;;;-140.66;100.00;55571.53;5116106;28;20102;-73
2023/09/14 05:57:11;;;;;;;12.95;4.85;;;;;;;-140.66;100.00;55571.53;5115780;28;20038;-71
2023/09/14 05:59:58;;;;;;;16.70;5.50;;;;;;;-140.66;100.00;55571.53;5117083;28;20030;-73
2023/09/14 06:02:44;;;;;;;11.65;4.15;;;;;;;-140.66;100.00;55571.53;5099933;28;20118;-71
2023/09/14 06:05:30;;;;;;;12.48;5.20;;;;;;;-140.66;100.00;55571.53;5101372;28;20445;-70
2023/09/14 06:08:16;;;;;;;11.98;4.95;;;;;;;-140.66;100.00;55571.53;5114799;28;20102;-70
2023/09/14 06:11:02;;;;;;;14.23;5.13;;;;;;;-140.66;100.00;55571.53;5114398;28;20425;-70
2023/09/14 06:13:47;;;;;;;9.93;4.65;;;;;;;-140.66;100.00;55571.53;5115217;28;20066;-71
2023/09/14 06:16:33;;;;;;;10.32;4.60;;;;;;;-140.66;100.00;55571.53;5114380;28;20024;-72
2023/09/14 06:19:19;;;;;;;13.68;4.60;;;;;;;-140.66;100.00;55571.53;5114359;28;20043;-71
2023/09/14 06:22:05;;;;;;;13.98;4.95;;;;;;;-140.66;100.00;55571.53;5115734;28;20091;-71
2023/09/14 06:24:51;;;;;;;15.43;6.43;;;;;;;-140.66;100.00;55571.53;5114959;28;20042;-71
2023/09/14 06:27:37;;;;;;;17.38;5.68;;;;;;;-140.66;100.00;55571.53;5115291;28;20027;-70
2023/09/14 06:30:22;;;;;;;14.85;5.50;;;;;;;-140.66;100.00;55571.53;5115801;28;20067;-72
2023/09/14 06:33:08;;;;;;;11.88;5.45;;;;;;;-140.66;100.00;55571.53;5113422;28;20449;-70
2023/09/14 06:35:54;;;;;;;14.27;5.40;;;;;;;-140.66;100.00;55571.53;5114017;28;20365;-71
2023/09/14 06:38:40;;;;;;;17.70;5.43;;;;;;;-140.66;100.00;55571.53;5113819;28;20460;-71
2023/09/14 06:41:25;;;;;;;13.13;5.95;;;;;;;-140.66;100.00;55571.53;5098375;28;20353;-70
2023/09/14 06:44:12;;;;;;;12.90;5.30;;;;;;;-140.66;100.00;55571.53;5112863;28;20418;-71
2023/09/14 06:47:00;;;;;;;12.23;5.35;;;;;;;-140.66;100.00;55571.53;5085519;28;20032;-70
2023/09/14 06:49:45;;;;;;;19.63;5.35;;;;;;;-140.66;100.00;55571.53;5113749;28;20114;-70
2023/09/14 06:52:32;;;;;;;18.25;5.85;;;;;;;-140.66;100.00;55571.53;5113149;28;20527;-70
2023/09/14 06:55:19;;;;;;;13.55;5.57;;;;;;;-140.66;100.00;55571.53;5113239;28;20394;-71
2023/09/14 06:58:07;;;;;;;16.27;5.75;;;;;;;-140.66;100.00;55571.53;5114896;28;20039;-70
2023/09/14 07:00:54;;;;;;;23.92;5.97;;;;;;;-140.66;100.00;55571.53;5113931;28;20357;-70
2023/09/14 07:03:39;;;;;;;14.93;5.90;;;;;;;-140.66;100.00;55571.53;5114425;28;20032;-70
2023/09/14 07:06:25;;;;;;;26.35;6.55;;;;;;;-140.66;100.00;55571.53;5113089;28;20035;-71
2023/09/14 07:09:14;;;;;;;12.45;5.20;;;;;;;-140.66;100.00;55571.53;5116860;28;20357;-73
2023/09/14 07:12:02;;;;;;;15.38;5.28;;;;;;;-140.66;100.00;55571.53;5115358;28;20028;-70
2023/09/14 07:14:47;;;;;;;14.18;5.13;;;;;;;-140.66;100.00;55571.53;5114092;28;20473;-71
2023/09/14 07:17:33;;;;;;;13.90;4.85;;;;;;;-140.66;100.00;55571.53;5112846;28;20027;-71
2023/09/14 07:20:19;;;;;;;14.55;5.75;;;;;;;-140.66;100.00;55571.53;5114258;28;20080;-71
2023/09/14 07:23:04;;;;;;;12.90;4.82;;;;;;;-140.66;100.00;55571.53;5114146;28;20055;-71
2023/09/14 07:25:50;;;;;;;19.40;4.93;;;;;;;-140.66;100.00;55571.53;5112724;28;20106;-71
2023/09/14 07:28:38;;;;;;;12.02;5.05;;;;;;;-140.66;100.00;55571.53;5114690;28;20163;-70
2023/09/14 07:31:23;;;;;;;11.65;4.68;;;;;;;-140.66;100.00;55571.53;5114210;28;20082;-71
2023/09/14 07:34:09;;;;;;;18.00;4.88;;;;;;;-140.66;100.00;55571.53;5098938;28;20118;-71
2023/09/14 07:36:55;;;;;;;10.68;4.50;;;;;;;-140.66;100.00;55571.53;5112607;28;20067;-71
2023/09/14 07:39:40;;;;;;;9.63;4.30;;;;;;;-140.66;100.00;55571.53;5114536;28;20023;-71
2023/09/14 07:42:26;;;;;;;11.98;4.47;;;;;;;-140.66;100.00;55571.53;5113104;28;20446;-71
2023/09/14 07:45:12;;;;;;;10.40;4.40;;;;;;;-140.66;100.00;55571.53;5094553;28;20051;-71
2023/09/14 07:47:58;;;;;;;10.50;4.50;;;;;;;-140.66;100.00;55571.53;5092584;28;20020;-70
2023/09/14 07:50:44;;;;;;;9.60;4.43;;;;;;;-140.66;100.00;55571.53;5079566;28;20089;-70
2023/09/14 07:53:30;;;;;;;12.98;4.60;;;;;;;-140.66;100.00;55571.53;5093187;28;20035;-71
2023/09/14 07:56:15;;;;;;;11.80;4.55;;;;;;;-140.66;100.00;55571.53;5094245;28;20024;-71
2023/09/14 07:59:01;;;;;;;11.18;4.20;;;;;;;-140.66;100.00;55571.53;5092968;28;20042;-70
2023/09/14 08:01:47;;;;;;;12.80;4.47;;;;;;;-140.66;100.00;55571.53;5096981;28;20459;-71
2023/09/14 08:04:33;;;;;;;12.98;4.60;;;;;;;-140.66;100.00;55571.53;5096895;28;20016;-70
2023/09/14 08:07:18;;;;;;;15.35;5.70;;;;;;;-140.66;100.00;55571.53;5082383;28;20028;-71
2023/09/14 08:10:05;;;;;;;10.25;4.55;;;;;;;-140.66;100.00;55571.53;5083201;28;20031;-71
2023/09/14 08:12:51;;;;;;;8.57;4.25;;;;;;;-140.66;100.00;55571.53;5097147;28;20028;-71
2023/09/14 08:15:40;;;;;;;13.68;4.38;;;;;;;-140.66;100.00;55571.53;5096525;28;20110;-71
2023/09/14 08:18:26;;;;;;;16.98;4.38;;;;;;;-140.66;100.00;55571.53;5096019;28;20032;-71
2023/09/14 08:21:11;;;;;;;11.60;4.30;;;;;;;-140.66;100.00;55571.53;5096737;28;20016;-71
2023/09/14 08:23:57;;;;;;;9.98;4.30;;;;;;;-140.66;100.00;55571.53;5096828;28;20039;-70
2023/09/14 08:26:43;;;;;;;13.60;4.30;;;;;;;-140.66;100.00;55571.53;5095915;28;20023;-71
2023/09/14 08:29:30;;;;;;;13.93;4.72;;;;;;;-140.66;100.00;55571.53;5096560;28;20436;-71
2023/09/14 08:32:16;;;;;;;15.40;4.35;;;;;;;-140.66;100.00;55571.53;5097300;28;20027;-71
2023/09/14 08:35:24;;;;;;;15.07;5.50;;;;;;;-140.66;100.00;55571.53;5097055;28;20100;-70
2023/09/14 08:38:10;;;;;;;12.52;4.57;;;;;;;-140.66;100.00;55571.53;5081064;28;20464;-71
2023/09/14 08:41:00;;;;;;;10.93;4.55;;;;;;;-140.66;100.00;55571.53;5096954;28;20047;-71
2023/09/14 08:43:47;;;;;;;8.70;4.55;;;;;;;-140.66;100.00;55571.53;5089599;28;20130;-71
2023/09/14 08:46:39;;;;;;;12.52;4.30;;;;;;;-140.66;100.00;55571.53;5101249;28;20069;-70
2023/09/14 08:49:28;;;;;;;8.77;4.78;;;;;;;-140.66;100.00;55571.53;5115590;28;20088;-72
2023/09/14 08:52:17;;;;;;;10.20;4.75;;;;;;;-140.66;100.00;55571.53;5116463;28;20402;-72
2023/09/14 08:55:04;;;;;;;16.23;4.43;;;;;;;-140.66;100.00;55571.53;5116281;28;20039;-71
2023/09/14 08:57:51;;;;;;;9.52;4.25;;;;;;;-140.66;100.00;55571.53;5101280;28;20168;-71
2023/09/14 09:00:38;;;;;;;14.90;5.60;;;;;;;-140.66;100.00;55571.53;5115697;28;20016;-70
2023/09/14 09:03:25;;;;;;;18.75;5.15;;;;;;;-140.66;100.00;55571.53;5101366;28;20096;-72
2023/09/14 09:06:11;;;;;;;19.23;4.53;;;;;;;-140.66;100.00;55571.53;5117439;28;20053;-71
2023/09/14 09:09:00;;;;;;;14.30;4.20;;;;;;;-140.66;100.00;55571.53;5114768;28;20032;-71
2023/09/14 09:11:47;;;;;;;14.10;5.05;;;;;;;-140.66;100.00;55571.53;5115054;28;20028;-71
2023/09/14 09:14:37;;;;;;;16.45;5.15;;;;;;;-140.66;100.00;55571.53;5107548;28;20019;-70
2023/09/14 09:17:22;;;;;;;14.02;4.57;;;;;;;-140.66;100.00;55571.53;5115911;28;20023;-71
2023/09/14 09:20:19;;;;;;;9.35;4.05;;;;;;;-140.66;100.00;55571.53;5115569;28;20055;-72
2023/09/14 09:23:05;;;;;;;16.90;4.63;;;;;;;-140.66;100.00;55571.53;5115542;28;20038;-71
2023/09/14 09:25:53;;;;;;;12.05;4.55;;;;;;;-140.66;100.00;55571.53;5100150;28;20024;-71
2023/09/14 09:28:46;;;;;;;12.77;4.38;;;;;;;-140.66;100.00;55571.53;5116127;28;20579;-71
2023/09/14 09:31:43;;;;;;;14.50;4.88;;;;;;;-140.66;100.00;55571.53;5115518;28;20073;-71
2023/09/14 09:34:33;;;;;;;21.85;5.15;;;;;;;-140.66;100.00;55571.53;5100089;28;20035;-70
2023/09/14 09:37:23;;;;;;;13.40;4.75;;;;;;;-140.66;100.00;55571.53;5115094;28;20042;-71
2023/09/14 09:40:17;;;;;;;12.02;4.57;;;;;;;-140.66;100.00;55571.53;5115764;28;20479;-70
2023/09/14 09:43:04;;;;;;;18.60;4.70;;;;;;;-140.66;100.00;55571.53;5114676;28;20051;-71
2023/09/14 09:45:50;;;;;;;11.75;4.38;;;;;;;-140.66;100.00;55571.53;5115140;28;20059;-70
2023/09/14 09:48:35;;;;;;;15.15;4.97;;;;;;;-140.66;100.00;55571.53;5115790;28;20110;-71
2023/09/14 09:51:22;;;;;;;18.02;5.28;;;;;;;-140.66;100.00;55571.53;5116264;28;20429;-72
2023/09/14 09:54:07;;;;;;;17.73;4.60;;;;;;;-140.66;100.00;55571.53;5115388;28;20031;-71
2023/09/14 09:56:53;;;;;;;15.98;5.00;;;;;;;-140.66;100.00;55571.53;5116822;28;20437;-71
2023/09/14 09:59:40;;;;;;;14.95;5.13;;;;;;;-140.66;100.00;55571.53;5114509;28;20114;-71
2023/09/14 10:02:31;;;;;;;16.30;4.80;;;;;;;-140.66;100.00;55571.53;5115306;28;20027;-71
2023/09/14 10:05:26;;;;;;;21.35;5.05;;;;;;;-140.66;100.00;55571.53;5099947;28;20070;-70
2023/09/14 10:08:21;;;;;;;18.17;4.80;;;;;;;-140.66;100.00;55571.53;5115274;28;20051;-71
2023/09/14 10:11:07;;;;;;;12.85;4.03;;;;;;;-140.66;100.00;55571.53;5115220;28;20081;-70
2023/09/14 10:13:53;;;;;;;15.73;5.55;;;;;;;-140.66;100.00;55571.53;5114361;28;20032;-71
2023/09/14 10:16:43;;;;;;;16.85;4.82;;;;;;;-140.66;100.00;55571.53;5114220;28;20111;-71
2023/09/14 10:19:30;;;;;;;16.48;5.00;;;;;;;-140.66;100.00;55571.53;5115295;28;20027;-71
2023/09/14 10:22:19;;;;;;;17.73;5.18;;;;;;;-140.66;100.00;55571.53;5115278;28;20030;-72
2023/09/14 10:25:07;;;;;;;15.90;5.10;;;;;;;-140.66;100.00;55571.53;5113580;28;20115;-72
2023/09/14 10:27:53;;;;;;;16.58;4.55;;;;;;;-140.66;100.00;55571.53;5114235;28;20019;-71
2023/09/14 10:30:39;;;;;;;21.38;4.80;;;;;;;-140.66;100.00;55571.53;5114924;28;20081;-72
2023/09/14 10:33:26;;;;;;;19.80;5.07;;;;;;;-140.66;100.00;55571.53;5114585;28;20114;-71
2023/09/14 10:36:13;;;;;;;14.50;5.30;;;;;;;-140.66;100.00;55571.53;5114110;28;20445;-71
2023/09/14 10:38:59;;;;;;;18.67;5.15;;;;;;;-140.66;100.00;55571.53;5113543;28;20518;-72
2023/09/14 10:41:45;;;;;;;26.17;5.28;;;;;;;-140.66;100.00;55571.53;5117014;28;20055;-70
2023/09/14 10:44:32;;;;;;;17.10;5.35;;;;;;;-140.66;100.00;55571.53;5114792;28;20193;-71
2023/09/14 10:47:23;;;;;;;32.67;5.75;;;;;;;-140.66;100.00;55571.53;5114549;28;20090;-71
2023/09/14 10:50:10;;;;;;;18.15;6.85;;;;;;;-140.66;100.00;55571.53;5113304;28;20058;-72
2023/09/14 10:52:56;;;;;;;24.75;7.72;;;;;;;-140.66;100.00;55571.53;5117021;28;20381;-72
2023/09/14 10:55:42;;;;;;;19.85;4.95;;;;;;;-140.66;100.00;55571.53;5115806;28;20031;-70
2023/09/14 10:58:49;;;;;;;18.63;5.32;;;;;;;-140.66;100.00;55571.53;5114230;28;20027;-72
2023/09/14 11:01:46;;;;;;;23.77;6.40;;;;;;;-140.66;100.00;55571.53;5100317;28;20423;-71
2023/09/14 11:04:32;;;;;;;17.83;5.75;;;;;;;-140.66;100.00;55571.53;5113951;28;20099;-71
2023/09/14 11:07:37;;;;;;;16.10;5.55;;;;;;;-140.66;100.00;55571.53;5099222;28;20027;-71
2023/09/14 11:10:23;;;;;;;24.15;6.03;;;;;;;-140.66;100.00;55571.53;5113085;28;20549;-71
2023/09/14 11:13:21;;;;;;;18.85;5.18;;;;;;;-140.66;100.00;55571.53;5113847;28;20096;-71
2023/09/14 11:16:24;;;;;;;23.60;6.03;;;;;;;-140.66;100.00;55571.53;5112637;28;20054;-72
2023/09/14 11:19:10;;;;;;;25.98;6.45;;;;;;;-140.66;100.00;55571.53;5113038;28;20046;-71
2023/09/14 11:22:03;;;;;;;17.25;5.80;;;;;;;-140.66;100.00;55571.53;5114219;28;20032;-71
2023/09/14 11:24:50;;;;;;;20.45;5.43;;;;;;;-140.66;100.00;55571.53;5114567;28;20499;-70
2023/09/14 11:27:36;;;;;;;21.35;5.65;;;;;;;-140.66;100.00;55571.53;5113008;28;20115;-71
2023/09/14 11:30:24;;;;;;;18.00;5.38;;;;;;;-140.66;100.00;55571.53;5113807;28;20050;-71
2023/09/14 11:33:10;;;;;;;20.67;5.18;;;;;;;-140.66;100.00;55571.53;5113123;28;20349;-71
2023/09/14 11:36:02;;;;;;;19.88;5.43;;;;;;;-140.66;100.00;55571.53;5115426;28;20031;-73
2023/09/14 11:38:49;;;;;;;18.17;5.57;;;;;;;-140.66;100.00;55571.53;5119626;28;20034;-71
2023/09/14 11:41:58;;;;;;;17.10;5.03;;;;;;;-140.66;100.00;55571.53;5103836;28;20410;-72
2023/09/14 11:44:49;;;;;;;20.85;5.93;;;;;;;-140.66;100.00;55571.53;5103543;28;20075;-71
2023/09/14 11:47:35;;;;;;;20.05;5.03;;;;;;;-140.66;100.00;55571.53;5117587;28;20023;-71
2023/09/14 11:50:23;;;;;;;19.10;5.47;;;;;;;-140.66;100.00;55571.53;5116922;28;20038;-71
2023/09/14 11:53:12;;;;;;;15.90;5.45;;;;;;;-140.66;100.00;55571.53;5118273;28;20533;-71
2023/09/14 11:55:58;;;;;;;24.35;5.47;;;;;;;-140.66;100.00;55571.53;5117685;28;20353;-71
2023/09/14 11:58:43;;;;;;;25.05;5.80;;;;;;;-140.66;100.00;55571.53;5116873;28;20027;-73
2023/09/14 12:01:38;;;;;;;21.80;5.55;;;;;;;-140.66;100.00;55571.53;5116845;28;20032;-72
2023/09/14 12:06:51;;;;;;;22.67;5.70;;;;;;;-140.66;100.00;55571.53;5076795;28;20052;-73
2023/09/14 12:09:39;;;;;;;18.02;5.38;;;;;;;-140.66;100.00;55571.53;5078194;28;20024;-73
2023/09/14 12:12:28;;;;;;;14.05;4.82;;;;;;;-140.66;100.00;55571.53;5078399;28;20089;-73
2023/09/14 12:15:21;;;;;;;20.63;5.35;;;;;;;-140.66;100.00;55571.53;5076492;28;20093;-73
2023/09/14 12:18:07;;;;;;;18.58;5.63;;;;;;;-140.66;100.00;55571.53;5063669;28;20035;-73
2023/09/14 12:20:52;;;;;;;22.27;5.60;;;;;;;-140.66;100.00;55571.53;5077090;28;20035;-73
2023/09/14 12:23:40;;;;;;;16.83;5.85;;;;;;;-140.66;100.00;55571.53;5076937;28;20035;-73
2023/09/14 12:26:26;;;;;;;21.23;6.00;;;;;;;-140.66;100.00;55571.53;5069515;28;20037;-73
2023/09/14 12:29:15;;;;;;;15.02;6.25;;;;;;;-140.66;100.00;55571.53;5077473;28;20036;-74
2023/09/14 12:32:01;;;;;;;15.93;5.68;;;;;;;-140.66;100.00;55571.53;5076877;28;20028;-73
2023/09/14 12:34:47;;;;;;;17.73;6.18;;;;;;;-140.66;100.00;55571.53;5077958;28;20040;-72
2023/09/14 12:37:36;;;;;;;24.58;6.65;;;;;;;-140.66;100.00;55571.53;5077200;28;20032;-73